sensor_id;sensor_type;location;lat;lon;timestamp;P1;durP1;ratioP1;P2;durP2;ratioP2
46266;SDS011;31998;48.798;15.066;2023-11-18T00:01:08;4.00;;;2.60;;
46266;SDS011;31998;48.798;15.066;2023-11-18T00:03:33;2.87;;;2.67;;
46266;SDS011;31998;48.798;15.066;2023-11-18T00:05:59;7.30;;;2.90;;
46266;SDS011;31998;48.798;15.066;2023-11-18T00:08:24;2.20;;;2.20;;
46266;SDS011;31998;48.798;15.066;2023-11-18T00:10:50;4.10;;;3.80;;
46266;SDS011;31998;48.798;15.066;2023-11-18T00:13:15;4.73;;;4.33;;
46266;SDS011;31998;48.798;15.066;2023-11-18T00:15:41;7.90;;;5.40;;
46266;SDS011;31998;48.798;15.066;2023-11-18T00:18:09;5.07;;;4.67;;
46266;SDS011;31998;48.798;15.066;2023-11-18T00:20:41;3.67;;;3.07;;
46266;SDS011;31998;48.798;15.066;2023-11-18T00:23:08;2.77;;;2.57;;
46266;SDS011;31998;48.798;15.066;2023-11-18T00:25:36;5.13;;;2.47;;
46266;SDS011;31998;48.798;15.066;2023-11-18T00:28:05;2.30;;;2.20;;
46266;SDS011;31998;48.798;15.066;2023-11-18T00:30:32;2.77;;;2.67;;
46266;SDS011;31998;48.798;15.066;2023-11-18T00:32:57;2.40;;;2.20;;
46266;SDS011;31998;48.798;15.066;2023-11-18T00:35:22;2.50;;;2.30;;
46266;SDS011;31998;48.798;15.066;2023-11-18T00:37:47;2.40;;;2.30;;
46266;SDS011;31998;48.798;15.066;2023-11-18T00:40:13;3.20;;;3.00;;
46266;SDS011;31998;48.798;15.066;2023-11-18T00:42:38;2.40;;;2.27;;
46266;SDS011;31998;48.798;15.066;2023-11-18T00:45:03;2.33;;;2.13;;
46266;SDS011;31998;48.798;15.066;2023-11-18T00:47:29;2.60;;;2.43;;
46266;SDS011;31998;48.798;15.066;2023-11-18T00:49:54;2.77;;;2.20;;
46266;SDS011;31998;48.798;15.066;2023-11-18T00:52:20;4.87;;;2.67;;
46266;SDS011;31998;48.798;15.066;2023-11-18T00:54:45;2.70;;;2.60;;
46266;SDS011;31998;48.798;15.066;2023-11-18T00:57:10;2.43;;;2.33;;
46266;SDS011;31998;48.798;15.066;2023-11-18T00:59:36;2.23;;;2.13;;
46266;SDS011;31998;48.798;15.066;2023-11-18T01:02:01;2.33;;;2.20;;
46266;SDS011;31998;48.798;15.066;2023-11-18T01:04:29;5.57;;;4.30;;
46266;SDS011;31998;48.798;15.066;2023-11-18T01:06:58;3.03;;;2.83;;
46266;SDS011;31998;48.798;15.066;2023-11-18T01:09:23;2.40;;;2.20;;
46266;SDS011;31998;48.798;15.066;2023-11-18T01:11:50;2.33;;;2.23;;
46266;SDS011;31998;48.798;15.066;2023-11-18T01:14:15;1.80;;;1.70;;
46266;SDS011;31998;48.798;15.066;2023-11-18T01:16:42;2.63;;;2.40;;
46266;SDS011;31998;48.798;15.066;2023-11-18T01:19:08;3.97;;;2.73;;
46266;SDS011;31998;48.798;15.066;2023-11-18T01:21:34;3.03;;;2.50;;
46266;SDS011;31998;48.798;15.066;2023-11-18T01:23:59;2.23;;;2.13;;
46266;SDS011;31998;48.798;15.066;2023-11-18T01:26:25;1.80;;;1.70;;
46266;SDS011;31998;48.798;15.066;2023-11-18T01:28:52;1.63;;;1.63;;
46266;SDS011;31998;48.798;15.066;2023-11-18T01:31:17;2.03;;;1.80;;
46266;SDS011;31998;48.798;15.066;2023-11-18T01:33:42;1.40;;;1.40;;
46266;SDS011;31998;48.798;15.066;2023-11-18T01:36:10;1.30;;;1.30;;
46266;SDS011;31998;48.798;15.066;2023-11-18T01:38:36;4.70;;;2.20;;
46266;SDS011;31998;48.798;15.066;2023-11-18T01:41:02;1.30;;;1.30;;
46266;SDS011;31998;48.798;15.066;2023-11-18T01:43:30;2.20;;;1.67;;
46266;SDS011;31998;48.798;15.066;2023-11-18T01:45:56;2.00;;;1.70;;
46266;SDS011;31998;48.798;15.066;2023-11-18T01:48:23;2.40;;;1.90;;
46266;SDS011;31998;48.798;15.066;2023-11-18T01:50:51;2.00;;;1.90;;
46266;SDS011;31998;48.798;15.066;2023-11-18T01:53:17;1.47;;;1.37;;
46266;SDS011;31998;48.798;15.066;2023-11-18T01:55:42;2.03;;;1.70;;
46266;SDS011;31998;48.798;15.066;2023-11-18T01:58:07;1.67;;;1.57;;
46266;SDS011;31998;48.798;15.066;2023-11-18T02:00:36;1.13;;;1.10;;
46266;SDS011;31998;48.798;15.066;2023-11-18T02:03:03;1.53;;;1.43;;
46266;SDS011;31998;48.798;15.066;2023-11-18T02:05:30;1.70;;;1.60;;
46266;SDS011;31998;48.798;15.066;2023-11-18T02:07:57;1.90;;;1.80;;
46266;SDS011;31998;48.798;15.066;2023-11-18T02:10:25;1.50;;;1.50;;
46266;SDS011;31998;48.798;15.066;2023-11-18T02:12:53;1.50;;;1.50;;
46266;SDS011;31998;48.798;15.066;2023-11-18T02:15:21;1.77;;;1.60;;
46266;SDS011;31998;48.798;15.066;2023-11-18T02:17:48;1.60;;;1.60;;
46266;SDS011;31998;48.798;15.066;2023-11-18T02:20:14;1.47;;;1.33;;
46266;SDS011;31998;48.798;15.066;2023-11-18T02:22:42;1.13;;;1.13;;
46266;SDS011;31998;48.798;15.066;2023-11-18T02:25:08;1.90;;;1.80;;
46266;SDS011;31998;48.798;15.066;2023-11-18T02:27:35;1.20;;;1.20;;
46266;SDS011;31998;48.798;15.066;2023-11-18T02:30:00;2.53;;;2.43;;
46266;SDS011;31998;48.798;15.066;2023-11-18T02:32:33;2.60;;;1.20;;
46266;SDS011;31998;48.798;15.066;2023-11-18T02:35:23;1.50;;;1.40;;
46266;SDS011;31998;48.798;15.066;2023-11-18T02:37:51;2.90;;;1.23;;
46266;SDS011;31998;48.798;15.066;2023-11-18T02:40:28;0.90;;;0.90;;
46266;SDS011;31998;48.798;15.066;2023-11-18T02:42:55;1.37;;;1.37;;
46266;SDS011;31998;48.798;15.066;2023-11-18T02:45:22;0.83;;;0.83;;
46266;SDS011;31998;48.798;15.066;2023-11-18T02:47:48;1.20;;;1.20;;
46266;SDS011;31998;48.798;15.066;2023-11-18T02:50:14;1.37;;;1.37;;
46266;SDS011;31998;48.798;15.066;2023-11-18T02:52:40;1.63;;;1.40;;
46266;SDS011;31998;48.798;15.066;2023-11-18T02:55:06;1.50;;;1.50;;
46266;SDS011;31998;48.798;15.066;2023-11-18T02:57:33;1.60;;;1.60;;
46266;SDS011;31998;48.798;15.066;2023-11-18T02:59:58;1.57;;;1.57;;
46266;SDS011;31998;48.798;15.066;2023-11-18T03:02:25;1.90;;;1.90;;
46266;SDS011;31998;48.798;15.066;2023-11-18T03:04:52;1.50;;;1.40;;
46266;SDS011;31998;48.798;15.066;2023-11-18T03:07:17;2.00;;;1.90;;
46266;SDS011;31998;48.798;15.066;2023-11-18T03:09:43;2.00;;;1.90;;
46266;SDS011;31998;48.798;15.066;2023-11-18T03:12:08;1.43;;;1.43;;
46266;SDS011;31998;48.798;15.066;2023-11-18T03:14:33;2.00;;;1.90;;
46266;SDS011;31998;48.798;15.066;2023-11-18T03:16:59;2.90;;;1.80;;
46266;SDS011;31998;48.798;15.066;2023-11-18T03:19:25;4.53;;;2.00;;
46266;SDS011;31998;48.798;15.066;2023-11-18T03:21:50;1.60;;;1.50;;
46266;SDS011;31998;48.798;15.066;2023-11-18T03:24:18;2.33;;;1.40;;
46266;SDS011;31998;48.798;15.066;2023-11-18T03:26:43;1.80;;;1.70;;
46266;SDS011;31998;48.798;15.066;2023-11-18T03:29:08;1.20;;;1.20;;
46266;SDS011;31998;48.798;15.066;2023-11-18T03:31:35;1.53;;;1.53;;
46266;SDS011;31998;48.798;15.066;2023-11-18T03:34:01;2.37;;;2.27;;
46266;SDS011;31998;48.798;15.066;2023-11-18T03:36:26;1.50;;;1.50;;
46266;SDS011;31998;48.798;15.066;2023-11-18T03:38:51;1.27;;;1.27;;
46266;SDS011;31998;48.798;15.066;2023-11-18T03:41:17;3.37;;;1.60;;
46266;SDS011;31998;48.798;15.066;2023-11-18T03:43:42;1.50;;;1.50;;
46266;SDS011;31998;48.798;15.066;2023-11-18T03:46:07;1.80;;;1.60;;
46266;SDS011;31998;48.798;15.066;2023-11-18T03:48:32;1.97;;;1.87;;
46266;SDS011;31998;48.798;15.066;2023-11-18T03:50:58;1.50;;;1.40;;
46266;SDS011;31998;48.798;15.066;2023-11-18T03:53:23;3.50;;;1.43;;
46266;SDS011;31998;48.798;15.066;2023-11-18T03:55:48;1.10;;;1.10;;
46266;SDS011;31998;48.798;15.066;2023-11-18T03:58:15;1.47;;;1.47;;
46266;SDS011;31998;48.798;15.066;2023-11-18T04:00:41;7.07;;;1.57;;
46266;SDS011;31998;48.798;15.066;2023-11-18T04:03:06;1.80;;;1.33;;
46266;SDS011;31998;48.798;15.066;2023-11-18T04:05:32;1.47;;;1.37;;
46266;SDS011;31998;48.798;15.066;2023-11-18T04:07:58;1.63;;;1.47;;
46266;SDS011;31998;48.798;15.066;2023-11-18T04:10:23;1.60;;;1.50;;
46266;SDS011;31998;48.798;15.066;2023-11-18T04:12:48;1.80;;;1.80;;
46266;SDS011;31998;48.798;15.066;2023-11-18T04:15:14;1.10;;;1.10;;
46266;SDS011;31998;48.798;15.066;2023-11-18T04:17:40;1.57;;;1.57;;
46266;SDS011;31998;48.798;15.066;2023-11-18T04:20:06;2.03;;;1.93;;
46266;SDS011;31998;48.798;15.066;2023-11-18T04:22:42;1.17;;;1.17;;
46266;SDS011;31998;48.798;15.066;2023-11-18T04:25:10;1.17;;;1.17;;
46266;SDS011;31998;48.798;15.066;2023-11-18T04:27:39;2.87;;;1.43;;
46266;SDS011;31998;48.798;15.066;2023-11-18T04:30:05;1.40;;;1.40;;
46266;SDS011;31998;48.798;15.066;2023-11-18T04:32:30;0.97;;;0.97;;
46266;SDS011;31998;48.798;15.066;2023-11-18T04:34:59;1.40;;;1.40;;
46266;SDS011;31998;48.798;15.066;2023-11-18T04:37:25;1.10;;;1.10;;
46266;SDS011;31998;48.798;15.066;2023-11-18T04:39:50;3.43;;;3.20;;
46266;SDS011;31998;48.798;15.066;2023-11-18T04:42:15;1.07;;;1.07;;
46266;SDS011;31998;48.798;15.066;2023-11-18T04:44:40;1.43;;;1.20;;
46266;SDS011;31998;48.798;15.066;2023-11-18T04:47:06;1.60;;;1.50;;
46266;SDS011;31998;48.798;15.066;2023-11-18T04:49:32;1.40;;;1.40;;
46266;SDS011;31998;48.798;15.066;2023-11-18T04:51:57;1.47;;;1.47;;
46266;SDS011;31998;48.798;15.066;2023-11-18T04:54:23;1.63;;;1.63;;
46266;SDS011;31998;48.798;15.066;2023-11-18T04:56:49;1.50;;;1.50;;
46266;SDS011;31998;48.798;15.066;2023-11-18T04:59:14;1.30;;;1.30;;
46266;SDS011;31998;48.798;15.066;2023-11-18T05:01:39;1.27;;;1.27;;
46266;SDS011;31998;48.798;15.066;2023-11-18T05:04:05;1.60;;;1.60;;
46266;SDS011;31998;48.798;15.066;2023-11-18T05:06:33;1.30;;;1.30;;
46266;SDS011;31998;48.798;15.066;2023-11-18T05:08:58;5.20;;;1.60;;
46266;SDS011;31998;48.798;15.066;2023-11-18T05:11:23;1.60;;;1.50;;
46266;SDS011;31998;48.798;15.066;2023-11-18T05:13:49;2.10;;;2.10;;
46266;SDS011;31998;48.798;15.066;2023-11-18T05:16:14;1.80;;;1.70;;
46266;SDS011;31998;48.798;15.066;2023-11-18T05:18:39;2.00;;;1.90;;
46266;SDS011;31998;48.798;15.066;2023-11-18T05:21:05;2.13;;;1.57;;
46266;SDS011;31998;48.798;15.066;2023-11-18T05:23:31;1.70;;;1.70;;
46266;SDS011;31998;48.798;15.066;2023-11-18T05:25:57;2.00;;;1.90;;
46266;SDS011;31998;48.798;15.066;2023-11-18T05:28:23;1.40;;;1.30;;
46266;SDS011;31998;48.798;15.066;2023-11-18T05:30:49;1.40;;;1.30;;
46266;SDS011;31998;48.798;15.066;2023-11-18T05:33:15;1.20;;;1.20;;
46266;SDS011;31998;48.798;15.066;2023-11-18T05:35:43;1.83;;;1.83;;
46266;SDS011;31998;48.798;15.066;2023-11-18T05:38:13;2.30;;;2.20;;
46266;SDS011;31998;48.798;15.066;2023-11-18T05:40:41;3.13;;;2.10;;
46266;SDS011;31998;48.798;15.066;2023-11-18T05:43:08;2.57;;;2.27;;
46266;SDS011;31998;48.798;15.066;2023-11-18T05:45:40;2.50;;;2.40;;
46266;SDS011;31998;48.798;15.066;2023-11-18T05:48:26;2.00;;;1.90;;
46266;SDS011;31998;48.798;15.066;2023-11-18T05:50:51;1.63;;;1.63;;
46266;SDS011;31998;48.798;15.066;2023-11-18T05:53:16;1.77;;;1.77;;
46266;SDS011;31998;48.798;15.066;2023-11-18T05:55:41;1.87;;;1.60;;
46266;SDS011;31998;48.798;15.066;2023-11-18T05:58:07;2.67;;;2.47;;
46266;SDS011;31998;48.798;15.066;2023-11-18T06:00:33;1.80;;;1.80;;
46266;SDS011;31998;48.798;15.066;2023-11-18T06:02:59;1.80;;;1.80;;
46266;SDS011;31998;48.798;15.066;2023-11-18T06:05:25;2.30;;;2.20;;
46266;SDS011;31998;48.798;15.066;2023-11-18T06:07:54;2.43;;;2.23;;
46266;SDS011;31998;48.798;15.066;2023-11-18T06:10:19;2.27;;;1.83;;
46266;SDS011;31998;48.798;15.066;2023-11-18T06:12:45;2.13;;;2.03;;
46266;SDS011;31998;48.798;15.066;2023-11-18T06:15:11;5.23;;;2.57;;
46266;SDS011;31998;48.798;15.066;2023-11-18T06:17:39;2.70;;;2.50;;
46266;SDS011;31998;48.798;15.066;2023-11-18T06:20:04;4.33;;;3.90;;
46266;SDS011;31998;48.798;15.066;2023-11-18T06:22:31;2.40;;;2.30;;
46266;SDS011;31998;48.798;15.066;2023-11-18T06:24:56;2.40;;;2.10;;
46266;SDS011;31998;48.798;15.066;2023-11-18T06:27:22;4.93;;;2.37;;
46266;SDS011;31998;48.798;15.066;2023-11-18T06:29:49;2.23;;;2.13;;
46266;SDS011;31998;48.798;15.066;2023-11-18T06:32:15;2.70;;;2.60;;
46266;SDS011;31998;48.798;15.066;2023-11-18T06:34:41;2.37;;;2.17;;
46266;SDS011;31998;48.798;15.066;2023-11-18T06:37:06;6.73;;;1.83;;
46266;SDS011;31998;48.798;15.066;2023-11-18T06:39:32;8.07;;;2.97;;
46266;SDS011;31998;48.798;15.066;2023-11-18T06:42:00;3.53;;;2.83;;
46266;SDS011;31998;48.798;15.066;2023-11-18T06:44:26;3.00;;;2.90;;
46266;SDS011;31998;48.798;15.066;2023-11-18T06:46:51;2.83;;;2.73;;
46266;SDS011;31998;48.798;15.066;2023-11-18T06:49:17;2.00;;;1.90;;
46266;SDS011;31998;48.798;15.066;2023-11-18T06:51:42;2.83;;;2.70;;
46266;SDS011;31998;48.798;15.066;2023-11-18T06:54:08;2.33;;;2.33;;
46266;SDS011;31998;48.798;15.066;2023-11-18T06:56:35;3.33;;;3.03;;
46266;SDS011;31998;48.798;15.066;2023-11-18T06:59:04;3.07;;;2.87;;
46266;SDS011;31998;48.798;15.066;2023-11-18T07:01:30;2.77;;;2.67;;
46266;SDS011;31998;48.798;15.066;2023-11-18T07:03:56;2.97;;;2.87;;
46266;SDS011;31998;48.798;15.066;2023-11-18T07:06:21;4.00;;;2.90;;
46266;SDS011;31998;48.798;15.066;2023-11-18T07:08:51;2.30;;;2.20;;
46266;SDS011;31998;48.798;15.066;2023-11-18T07:11:17;3.27;;;2.97;;
46266;SDS011;31998;48.798;15.066;2023-11-18T07:13:42;2.03;;;1.93;;
46266;SDS011;31998;48.798;15.066;2023-11-18T07:16:08;2.40;;;2.30;;
46266;SDS011;31998;48.798;15.066;2023-11-18T07:18:34;2.93;;;2.73;;
46266;SDS011;31998;48.798;15.066;2023-11-18T07:20:59;7.43;;;5.37;;
46266;SDS011;31998;48.798;15.066;2023-11-18T07:23:24;3.30;;;3.20;;
46266;SDS011;31998;48.798;15.066;2023-11-18T07:25:50;3.43;;;3.10;;
46266;SDS011;31998;48.798;15.066;2023-11-18T07:28:15;3.20;;;2.90;;
46266;SDS011;31998;48.798;15.066;2023-11-18T07:30:43;2.90;;;2.80;;
46266;SDS011;31998;48.798;15.066;2023-11-18T07:33:17;4.80;;;3.30;;
46266;SDS011;31998;48.798;15.066;2023-11-18T07:36:00;5.03;;;3.20;;
46266;SDS011;31998;48.798;15.066;2023-11-18T07:38:27;3.07;;;2.97;;
46266;SDS011;31998;48.798;15.066;2023-11-18T07:40:53;3.80;;;3.47;;
46266;SDS011;31998;48.798;15.066;2023-11-18T07:43:21;5.13;;;3.47;;
46266;SDS011;31998;48.798;15.066;2023-11-18T07:45:47;6.27;;;3.63;;
46266;SDS011;31998;48.798;15.066;2023-11-18T07:48:14;3.47;;;3.17;;
46266;SDS011;31998;48.798;15.066;2023-11-18T07:50:42;4.20;;;3.53;;
46266;SDS011;31998;48.798;15.066;2023-11-18T07:53:09;3.87;;;3.53;;
46266;SDS011;31998;48.798;15.066;2023-11-18T07:55:34;6.47;;;4.70;;
46266;SDS011;31998;48.798;15.066;2023-11-18T07:58:01;3.53;;;3.33;;
46266;SDS011;31998;48.798;15.066;2023-11-18T08:00:28;3.43;;;3.30;;
46266;SDS011;31998;48.798;15.066;2023-11-18T08:02:56;2.20;;;2.20;;
46266;SDS011;31998;48.798;15.066;2023-11-18T08:05:21;3.43;;;3.23;;
46266;SDS011;31998;48.798;15.066;2023-11-18T08:07:49;3.43;;;3.30;;
46266;SDS011;31998;48.798;15.066;2023-11-18T08:10:14;3.27;;;3.13;;
46266;SDS011;31998;48.798;15.066;2023-11-18T08:12:43;3.93;;;3.67;;
46266;SDS011;31998;48.798;15.066;2023-11-18T08:15:09;5.43;;;3.60;;
46266;SDS011;31998;48.798;15.066;2023-11-18T08:17:35;4.77;;;4.40;;
46266;SDS011;31998;48.798;15.066;2023-11-18T08:20:00;5.27;;;3.17;;
46266;SDS011;31998;48.798;15.066;2023-11-18T08:22:25;4.30;;;4.00;;
46266;SDS011;31998;48.798;15.066;2023-11-18T08:24:51;3.80;;;3.60;;
46266;SDS011;31998;48.798;15.066;2023-11-18T08:27:16;3.90;;;3.70;;
46266;SDS011;31998;48.798;15.066;2023-11-18T08:29:41;4.40;;;3.40;;
46266;SDS011;31998;48.798;15.066;2023-11-18T08:32:08;3.70;;;3.40;;
46266;SDS011;31998;48.798;15.066;2023-11-18T08:34:34;3.63;;;3.43;;
46266;SDS011;31998;48.798;15.066;2023-11-18T08:37:00;3.37;;;3.07;;
46266;SDS011;31998;48.798;15.066;2023-11-18T08:39:28;4.07;;;3.50;;
46266;SDS011;31998;48.798;15.066;2023-11-18T08:41:54;4.23;;;3.50;;
46266;SDS011;31998;48.798;15.066;2023-11-18T08:44:19;3.33;;;3.10;;
46266;SDS011;31998;48.798;15.066;2023-11-18T08:46:44;3.80;;;3.57;;
46266;SDS011;31998;48.798;15.066;2023-11-18T08:49:21;3.47;;;3.23;;
46266;SDS011;31998;48.798;15.066;2023-11-18T08:51:47;3.60;;;3.47;;
46266;SDS011;31998;48.798;15.066;2023-11-18T08:54:14;4.20;;;3.90;;
46266;SDS011;31998;48.798;15.066;2023-11-18T08:56:48;4.80;;;4.40;;
46266;SDS011;31998;48.798;15.066;2023-11-18T08:59:15;5.10;;;4.80;;
46266;SDS011;31998;48.798;15.066;2023-11-18T09:01:41;4.57;;;4.27;;
46266;SDS011;31998;48.798;15.066;2023-11-18T09:04:07;4.70;;;4.40;;
46266;SDS011;31998;48.798;15.066;2023-11-18T09:06:32;3.73;;;3.53;;
46266;SDS011;31998;48.798;15.066;2023-11-18T09:08:58;3.23;;;3.13;;
46266;SDS011;31998;48.798;15.066;2023-11-18T09:11:25;3.93;;;3.63;;
46266;SDS011;31998;48.798;15.066;2023-11-18T09:13:54;3.80;;;3.60;;
46266;SDS011;31998;48.798;15.066;2023-11-18T09:16:22;4.60;;;4.30;;
46266;SDS011;31998;48.798;15.066;2023-11-18T09:18:47;4.60;;;4.20;;
46266;SDS011;31998;48.798;15.066;2023-11-18T09:21:13;4.77;;;4.27;;
46266;SDS011;31998;48.798;15.066;2023-11-18T09:23:44;3.40;;;3.10;;
46266;SDS011;31998;48.798;15.066;2023-11-18T09:26:10;8.10;;;4.67;;
46266;SDS011;31998;48.798;15.066;2023-11-18T09:28:36;5.57;;;4.50;;
46266;SDS011;31998;48.798;15.066;2023-11-18T09:31:01;5.63;;;3.97;;
46266;SDS011;31998;48.798;15.066;2023-11-18T09:33:31;4.67;;;4.30;;
46266;SDS011;31998;48.798;15.066;2023-11-18T09:36:02;8.93;;;4.60;;
46266;SDS011;31998;48.798;15.066;2023-11-18T09:38:28;5.33;;;4.67;;
46266;SDS011;31998;48.798;15.066;2023-11-18T09:40:54;10.33;;;5.37;;
46266;SDS011;31998;48.798;15.066;2023-11-18T09:43:19;8.20;;;5.10;;
46266;SDS011;31998;48.798;15.066;2023-11-18T09:45:47;4.73;;;4.33;;
46266;SDS011;31998;48.798;15.066;2023-11-18T09:48:14;5.70;;;4.70;;
46266;SDS011;31998;48.798;15.066;2023-11-18T09:50:43;5.37;;;4.00;;
46266;SDS011;31998;48.798;15.066;2023-11-18T09:53:12;2.97;;;2.87;;
46266;SDS011;31998;48.798;15.066;2023-11-18T09:58:39;5.67;;;5.10;;
46266;SDS011;31998;48.798;15.066;2023-11-18T10:01:06;19.03;;;12.10;;
46266;SDS011;31998;48.798;15.066;2023-11-18T10:03:31;4.07;;;3.67;;
46266;SDS011;31998;48.798;15.066;2023-11-18T10:06:01;6.40;;;5.80;;
46266;SDS011;31998;48.798;15.066;2023-11-18T10:08:30;4.80;;;4.40;;
46266;SDS011;31998;48.798;15.066;2023-11-18T10:10:55;3.87;;;3.20;;
46266;SDS011;31998;48.798;15.066;2023-11-18T10:13:30;3.97;;;3.67;;
46266;SDS011;31998;48.798;15.066;2023-11-18T10:15:55;3.97;;;3.67;;
46266;SDS011;31998;48.798;15.066;2023-11-18T10:18:22;3.60;;;3.50;;
46266;SDS011;31998;48.798;15.066;2023-11-18T10:20:48;4.27;;;3.97;;
46266;SDS011;31998;48.798;15.066;2023-11-18T10:23:20;3.60;;;3.40;;
46266;SDS011;31998;48.798;15.066;2023-11-18T10:25:50;4.23;;;4.03;;
46266;SDS011;31998;48.798;15.066;2023-11-18T10:28:33;4.57;;;4.37;;
46266;SDS011;31998;48.798;15.066;2023-11-18T10:31:00;3.53;;;3.33;;
46266;SDS011;31998;48.798;15.066;2023-11-18T10:33:32;4.23;;;3.97;;
46266;SDS011;31998;48.798;15.066;2023-11-18T10:35:58;5.53;;;4.40;;
46266;SDS011;31998;48.798;15.066;2023-11-18T10:38:29;4.10;;;3.90;;
46266;SDS011;31998;48.798;15.066;2023-11-18T10:40:58;3.80;;;3.70;;
46266;SDS011;31998;48.798;15.066;2023-11-18T10:43:23;4.00;;;3.80;;
46266;SDS011;31998;48.798;15.066;2023-11-18T10:46:06;5.83;;;5.43;;
46266;SDS011;31998;48.798;15.066;2023-11-18T10:48:42;5.03;;;4.53;;
46266;SDS011;31998;48.798;15.066;2023-11-18T10:51:10;6.30;;;4.10;;
46266;SDS011;31998;48.798;15.066;2023-11-18T10:53:42;4.17;;;3.97;;
46266;SDS011;31998;48.798;15.066;2023-11-18T10:56:28;4.40;;;4.20;;
46266;SDS011;31998;48.798;15.066;2023-11-18T10:58:57;4.77;;;4.50;;
46266;SDS011;31998;48.798;15.066;2023-11-18T11:01:33;3.90;;;3.70;;
46266;SDS011;31998;48.798;15.066;2023-11-18T11:03:58;3.90;;;3.70;;
46266;SDS011;31998;48.798;15.066;2023-11-18T11:06:24;3.90;;;3.60;;
46266;SDS011;31998;48.798;15.066;2023-11-18T11:08:52;5.90;;;5.07;;
46266;SDS011;31998;48.798;15.066;2023-11-18T11:11:19;4.30;;;4.00;;
46266;SDS011;31998;48.798;15.066;2023-11-18T11:13:46;3.57;;;3.47;;
46266;SDS011;31998;48.798;15.066;2023-11-18T11:16:12;5.43;;;3.90;;
46266;SDS011;31998;48.798;15.066;2023-11-18T11:18:39;5.40;;;4.90;;
46266;SDS011;31998;48.798;15.066;2023-11-18T11:21:18;4.50;;;4.13;;
46266;SDS011;31998;48.798;15.066;2023-11-18T11:23:50;4.47;;;4.27;;
46266;SDS011;31998;48.798;15.066;2023-11-18T11:31:35;4.27;;;4.07;;
46266;SDS011;31998;48.798;15.066;2023-11-18T11:34:03;2.97;;;2.87;;
46266;SDS011;31998;48.798;15.066;2023-11-18T11:36:31;3.60;;;3.50;;
46266;SDS011;31998;48.798;15.066;2023-11-18T11:38:59;4.33;;;4.13;;
46266;SDS011;31998;48.798;15.066;2023-11-18T11:41:24;3.77;;;3.47;;
46266;SDS011;31998;48.798;15.066;2023-11-18T11:43:52;7.03;;;5.07;;
46266;SDS011;31998;48.798;15.066;2023-11-18T11:46:23;4.10;;;3.90;;
46266;SDS011;31998;48.798;15.066;2023-11-18T11:48:50;5.03;;;4.83;;
46266;SDS011;31998;48.798;15.066;2023-11-18T11:51:22;3.80;;;3.53;;
46266;SDS011;31998;48.798;15.066;2023-11-18T11:54:09;22.73;;;12.93;;
46266;SDS011;31998;48.798;15.066;2023-11-18T11:56:44;11.70;;;9.03;;
46266;SDS011;31998;48.798;15.066;2023-11-18T11:59:12;3.97;;;3.77;;
46266;SDS011;31998;48.798;15.066;2023-11-18T12:01:37;4.40;;;4.20;;
46266;SDS011;31998;48.798;15.066;2023-11-18T12:04:03;4.00;;;3.80;;
46266;SDS011;31998;48.798;15.066;2023-11-18T12:06:37;3.17;;;3.00;;
46266;SDS011;31998;48.798;15.066;2023-11-18T12:09:06;4.30;;;4.00;;
46266;SDS011;31998;48.798;15.066;2023-11-18T12:11:34;3.63;;;3.50;;
46266;SDS011;31998;48.798;15.066;2023-11-18T12:14:05;4.10;;;3.80;;
46266;SDS011;31998;48.798;15.066;2023-11-18T12:19:46;4.37;;;3.73;;
46266;SDS011;31998;48.798;15.066;2023-11-18T12:22:19;4.10;;;3.90;;
46266;SDS011;31998;48.798;15.066;2023-11-18T12:33:04;3.37;;;3.27;;
46266;SDS011;31998;48.798;15.066;2023-11-18T12:43:17;2.30;;;2.20;;
46266;SDS011;31998;48.798;15.066;2023-11-18T12:46:24;2.50;;;2.30;;
46266;SDS011;31998;48.798;15.066;2023-11-18T12:48:42;2.70;;;2.60;;
46266;SDS011;31998;48.798;15.066;2023-11-18T12:51:08;2.83;;;2.73;;
46266;SDS011;31998;48.798;15.066;2023-11-18T12:53:44;2.47;;;1.97;;
46266;SDS011;31998;48.798;15.066;2023-11-18T12:56:09;3.60;;;3.40;;
46266;SDS011;31998;48.798;15.066;2023-11-18T12:58:38;2.17;;;2.07;;
46266;SDS011;31998;48.798;15.066;2023-11-18T13:01:04;3.07;;;2.97;;
46266;SDS011;31998;48.798;15.066;2023-11-18T13:03:29;3.40;;;2.10;;
46266;SDS011;31998;48.798;15.066;2023-11-18T13:05:55;2.60;;;2.50;;
46266;SDS011;31998;48.798;15.066;2023-11-18T13:08:21;4.73;;;2.40;;
46266;SDS011;31998;48.798;15.066;2023-11-18T13:10:47;2.97;;;2.77;;
46266;SDS011;31998;48.798;15.066;2023-11-18T13:13:13;2.17;;;2.07;;
46266;SDS011;31998;48.798;15.066;2023-11-18T13:15:42;1.80;;;1.80;;
46266;SDS011;31998;48.798;15.066;2023-11-18T13:18:07;2.03;;;2.00;;
46266;SDS011;31998;48.798;15.066;2023-11-18T13:20:34;2.70;;;2.60;;
46266;SDS011;31998;48.798;15.066;2023-11-18T13:23:02;3.33;;;2.80;;
46266;SDS011;31998;48.798;15.066;2023-11-18T13:25:34;2.37;;;2.17;;
46266;SDS011;31998;48.798;15.066;2023-11-18T13:27:59;1.97;;;1.87;;
46266;SDS011;31998;48.798;15.066;2023-11-18T13:30:24;2.00;;;2.00;;
46266;SDS011;31998;48.798;15.066;2023-11-18T13:32:49;1.80;;;1.80;;
46266;SDS011;31998;48.798;15.066;2023-11-18T13:35:15;1.50;;;1.50;;
46266;SDS011;31998;48.798;15.066;2023-11-18T13:37:46;6.73;;;1.50;;
46266;SDS011;31998;48.798;15.066;2023-11-18T13:40:13;1.37;;;1.37;;
46266;SDS011;31998;48.798;15.066;2023-11-18T13:42:38;1.60;;;1.60;;
46266;SDS011;31998;48.798;15.066;2023-11-18T13:45:05;1.37;;;1.30;;
46266;SDS011;31998;48.798;15.066;2023-11-18T13:47:37;1.83;;;1.73;;
46266;SDS011;31998;48.798;15.066;2023-11-18T13:50:06;1.63;;;1.57;;
46266;SDS011;31998;48.798;15.066;2023-11-18T13:52:31;5.57;;;1.70;;
46266;SDS011;31998;48.798;15.066;2023-11-18T13:54:58;1.93;;;1.83;;
46266;SDS011;31998;48.798;15.066;2023-11-18T13:57:24;1.30;;;1.30;;
46266;SDS011;31998;48.798;15.066;2023-11-18T13:59:50;1.83;;;1.73;;
46266;SDS011;31998;48.798;15.066;2023-11-18T14:02:15;2.60;;;1.33;;
46266;SDS011;31998;48.798;15.066;2023-11-18T14:04:41;1.13;;;1.13;;
46266;SDS011;31998;48.798;15.066;2023-11-18T14:07:08;2.07;;;1.87;;
46266;SDS011;31998;48.798;15.066;2023-11-18T14:09:34;1.87;;;1.77;;
46266;SDS011;31998;48.798;15.066;2023-11-18T14:12:06;1.90;;;1.83;;
46266;SDS011;31998;48.798;15.066;2023-11-18T14:14:31;2.60;;;2.47;;
46266;SDS011;31998;48.798;15.066;2023-11-18T14:16:57;1.20;;;1.20;;
46266;SDS011;31998;48.798;15.066;2023-11-18T14:19:26;1.90;;;1.90;;
46266;SDS011;31998;48.798;15.066;2023-11-18T14:21:52;1.60;;;1.60;;
46266;SDS011;31998;48.798;15.066;2023-11-18T14:24:17;1.60;;;1.60;;
46266;SDS011;31998;48.798;15.066;2023-11-18T14:26:43;1.57;;;1.57;;
46266;SDS011;31998;48.798;15.066;2023-11-18T14:29:08;1.50;;;1.47;;
46266;SDS011;31998;48.798;15.066;2023-11-18T14:31:34;2.20;;;1.60;;
46266;SDS011;31998;48.798;15.066;2023-11-18T14:33:59;1.60;;;1.50;;
46266;SDS011;31998;48.798;15.066;2023-11-18T14:36:27;4.87;;;3.90;;
46266;SDS011;31998;48.798;15.066;2023-11-18T14:38:53;1.83;;;1.30;;
46266;SDS011;31998;48.798;15.066;2023-11-18T14:41:18;1.70;;;1.60;;
46266;SDS011;31998;48.798;15.066;2023-11-18T14:43:45;1.60;;;1.60;;
46266;SDS011;31998;48.798;15.066;2023-11-18T14:46:10;1.50;;;1.40;;
46266;SDS011;31998;48.798;15.066;2023-11-18T14:48:36;2.40;;;2.30;;
46266;SDS011;31998;48.798;15.066;2023-11-18T14:51:01;1.80;;;1.70;;
46266;SDS011;31998;48.798;15.066;2023-11-18T14:53:26;5.67;;;3.50;;
46266;SDS011;31998;48.798;15.066;2023-11-18T14:55:52;52.37;;;18.17;;
46266;SDS011;31998;48.798;15.066;2023-11-18T14:58:17;49.63;;;16.50;;
46266;SDS011;31998;48.798;15.066;2023-11-18T15:00:42;105.47;;;27.27;;